Time,TemperatureF,DewpointF,PressureIn,WindDirection,WindDirectionDegrees,WindSpeedMPH,WindSpeedGustMPH,Humidity,HourlyPrecipIn,Conditions,Clouds,dailyrainin,SoftwareType,DateUTC
2013-01-18 00:02:00,35.4,28.9,29.87,WSW,248,2.3,0.0,77,0.00,CLR,CLR,0.00,WeatherDisplay:10.37,2013-01-18 05:02:00,
2013-01-18 00:03:00,35.4,28.9,29.87,WSW,248,2.3,2.3,77,0.00,CLR,CLR,0.00,WeatherDisplay:10.37,2013-01-18 05:03:00,
2013-01-18 00:05:00,35.4,28.6,29.86,SSW,202,3.5,3.5,76,0.00,CLR,CLR,0.00,WeatherDisplay:10.37,2013-01-18 05:05:00,
2013-01-18 00:10:00,35.8,29.0,29.86,SW,225,2.3,2.3,76,0.00,CLR,CLR,0.00,WeatherDisplay:10.37,2013-01-18 05:10:00,
2013-01-18 00:15:00,36.0,28.8,29.87,WSW,248,3.6,3.6,75,0.00,CLR,CLR,0.00,WeatherDisplay:10.37,2013-01-18 05:15:00,
2013-01-18 00:20:00,36.1,28.6,29.87,WSW,248,6.5,6.5,74,0.00,CLR,CLR,0.00,WeatherDisplay:10.37,2013-01-18 05:20:00,
2013-01-18 00:25:00,36.1,28.6,29.89,SW,225,1.2,1.2,74,0.00,CLR,CLR,0.00,WeatherDisplay:10.37,2013-01-18 05:25:00,
2013-01-18 00:31:00,36.1,28.3,29.89,WSW,248,1.3,1.3,73,0.00,CLR,CLR,0.00,WeatherDisplay:10.37,2013-01-18 05:31:00,
2013-01-18 00:36:00,36.1,28.3,29.89,SSW,202,3.5,3.5,73,0.00,CLR,CLR,0.00,WeatherDisplay:10.37,2013-01-18 05:36:00,
2013-01-18 00:41:00,36.1,28.3,29.89,SW,225,2.3,2.3,73,0.00,CLR,CLR,0.00,WeatherDisplay:10.37,2013-01-18 05:41:00,
2013-01-18 00:46:00,36.0,27.8,29.90,SW,225,3.5,3.5,72,0.00,CLR,CLR,0.00,WeatherDisplay:10.37,2013-01-18 05:46:00,
2013-01-18 00:51:00,36.0,27.8,29.91,SSW,202,2.5,2.5,72,0.00,CLR,CLR,0.00,WeatherDisplay:10.37,2013-01-18 05:51:00,
2013-01-18 00:57:00,36.0,27.8,29.91,SSW,202,3.5,3.5,72,0.00,CLR,CLR,0.00,WeatherDisplay:10.37,2013-01-18 05:57:00,
2013-01-18 01:02:00,35.8,27.6,29.91,SW,225,5.8,5.8,72,0.00,CLR,CLR,0.00,WeatherDisplay:10.37,2013-01-18 06:02:00,
2013-01-18 01:07:00,35.8,27.6,29.91,SSW,202,1.2,1.2,72,0.00,CLR,CLR,0.00,WeatherDisplay:10.37,2013-01-18 06:07:00,
2013-01-18 01:12:00,35.6,27.5,29.91,South,180,0.0,0.0,72,0.00,CLR,CLR,0.00,WeatherDisplay:10.37,2013-01-18 06:12:00,
2013-01-18 01:18:00,35.4,27.3,29.92,SW,225,1.2,1.2,72,0.00,CLR,CLR,0.00,WeatherDisplay:10.37,2013-01-18 06:18:00,
2013-01-18 01:23:00,35.4,27.3,29.92,SW,225,0.0,0.0,72,0.00,CLR,CLR,0.00,WeatherDisplay:10.37,2013-01-18 06:23:00,
2013-01-18 01:28:00,35.2,27.1,29.92,SW,225,0.0,0.0,72,0.00,CLR,CLR,0.00,WeatherDisplay:10.37,2013-01-18 06:28:00,
2013-01-18 01:33:00,35.2,27.1,29.92,SW,225,1.2,0.0,72,0.00,CLR,CLR,0.00,WeatherDisplay:10.37,2013-01-18 06:33:00,
2013-01-18 01:39:00,35.2,26.8,29.93,West,270,4.6,4.6,71,0.00,CLR,CLR,0.00,WeatherDisplay:10.37,2013-01-18 06:39:00,
2013-01-18 01:44:00,35.2,26.8,29.93,West,270,3.5,0.0,71,0.00,CLR,CLR,0.00,WeatherDisplay:10.37,2013-01-18 06:44:00,
2013-01-18 01:49:00,35.2,26.8,29.93,WSW,248,1.2,0.0,71,0.00,CLR,CLR,0.00,WeatherDisplay:10.37,2013-01-18 06:49:00,
2013-01-18 01:54:00,35.4,26.6,29.94,WSW,248,3.6,3.6,70,0.00,CLR,CLR,0.00,WeatherDisplay:10.37,2013-01-18 06:54:00,
2013-01-18 01:59:00,35.4,26.6,29.95,WNW,292,0.0,0.0,70,0.00,CLR,CLR,0.00,WeatherDisplay:10.37,2013-01-18 06:59:00,
2013-01-18 02:04:00,35.4,26.6,29.94,South,180,2.0,2.0,70,0.00,CLR,CLR,0.00,WeatherDisplay:10.37,2013-01-18 07:04:00,
2013-01-18 02:10:00,35.4,26.6,29.95,SSW,202,1.2,1.2,70,0.00,CLR,CLR,0.00,WeatherDisplay:10.37,2013-01-18 07:10:00,
2013-01-18 02:15:00,35.4,26.6,29.95,SSW,202,4.6,4.6,70,0.00,CLR,CLR,0.00,WeatherDisplay:10.37,2013-01-18 07:15:00,
2013-01-18 02:20:00,35.4,26.6,29.95,WSW,248,2.7,2.7,70,0.00,CLR,CLR,0.00,WeatherDisplay:10.37,2013-01-18 07:20:00,
2013-01-18 02:25:00,35.4,26.3,29.95,SSW,202,4.6,4.6,69,0.00,CLR,CLR,0.00,WeatherDisplay:10.37,2013-01-18 07:25:00,
2013-01-18 02:30:00,35.8,26.9,29.95,WSW,248,2.3,2.3,70,0.00,CLR,CLR,0.00,WeatherDisplay:10.37,2013-01-18 07:30:00,
2013-01-18 02:35:00,35.8,26.6,29.95,SSW,202,2.2,2.2,69,0.00,CLR,CLR,0.00,WeatherDisplay:10.37,2013-01-18 07:35:00,
2013-01-18 02:41:00,35.8,26.6,29.95,SSW,202,10.4,10.4,69,0.00,CLR,CLR,0.00,WeatherDisplay:10.37,2013-01-18 07:41:00,
2013-01-18 02:46:00,35.8,26.6,29.95,WSW,248,4.5,4.5,69,0.00,CLR,CLR,0.00,WeatherDisplay:10.37,2013-01-18 07:46:00,
2013-01-18 02:51:00,35.8,26.2,29.96,West,270,8.1,8.1,68,0.00,CLR,CLR,0.00,WeatherDisplay:10.37,2013-01-18 07:51:00,
2013-01-18 02:56:00,36.0,26.4,29.95,NNE,22,4.6,4.6,68,0.00,CLR,CLR,0.00,WeatherDisplay:10.37,2013-01-18 07:56:00,
2013-01-18 03:02:00,36.3,26.8,29.96,SW,225,6.9,6.9,68,0.00,CLR,CLR,0.00,WeatherDisplay:10.37,2013-01-18 08:02:00,
2013-01-18 03:07:00,36.5,26.9,29.95,SW,225,3.5,3.5,68,0.00,CLR,CLR,0.00,WeatherDisplay:10.37,2013-01-18 08:07:00,
2013-01-18 03:12:00,36.7,26.7,29.95,SW,225,11.5,11.5,67,0.00,CLR,CLR,0.00,WeatherDisplay:10.37,2013-01-18 08:12:00,
2013-01-18 03:17:00,36.9,26.9,29.96,West,270,9.2,9.2,67,0.00,CLR,CLR,0.00,WeatherDisplay:10.37,2013-01-18 08:17:00,
2013-01-18 03:22:00,37.0,26.7,29.96,WSW,248,5.8,5.8,66,0.00,CLR,CLR,0.00,WeatherDisplay:10.37,2013-01-18 08:22:00,
2013-01-18 03:27:00,37.2,26.9,29.96,WSW,248,9.2,9.2,66,0.00,CLR,CLR,0.00,WeatherDisplay:10.37,2013-01-18 08:27:00,
2013-01-18 03:33:00,37.2,26.5,29.97,North,0,13.8,13.8,65,0.00,CLR,CLR,0.00,WeatherDisplay:10.37,2013-01-18 08:33:00,
2013-01-18 03:38:00,37.4,25.6,29.97,WSW,248,8.1,8.1,62,0.00,CLR,CLR,0.00,WeatherDisplay:10.37,2013-01-18 08:38:00,
2013-01-18 03:43:00,37.6,25.3,29.98,WNW,292,10.4,10.4,61,0.00,CLR,CLR,0.00,WeatherDisplay:10.37,2013-01-18 08:43:00,
2013-01-18 03:48:00,37.8,24.7,29.98,West,270,8.1,8.1,59,0.00,CLR,CLR,0.00,WeatherDisplay:10.37,2013-01-18 08:48:00,
2013-01-18 03:53:00,37.4,25.9,29.99,WNW,292,9.2,9.2,63,0.00,CLR,CLR,0.00,WeatherDisplay:10.37,2013-01-18 08:53:00,
2013-01-18 03:59:00,36.7,26.0,29.99,West,270,8.1,8.1,65,0.00,CLR,CLR,0.00,WeatherDisplay:10.37,2013-01-18 08:59:00,
2013-01-18 04:04:00,36.1,25.5,29.99,NW,315,10.4,10.4,65,0.00,CLR,CLR,0.00,WeatherDisplay:10.37,2013-01-18 09:04:00,
2013-01-18 04:09:00,36.0,25.0,29.99,West,270,11.5,11.5,64,0.00,CLR,CLR,0.00,WeatherDisplay:10.37,2013-01-18 09:09:00,
2013-01-18 04:14:00,36.0,25.0,30.00,South,180,9.2,9.2,64,0.00,CLR,CLR,0.00,WeatherDisplay:10.37,2013-01-18 09:14:00,
2013-01-18 04:20:00,36.0,25.0,30.00,WSW,248,0.0,0.2,64,0.00,CLR,CLR,0.00,WeatherDisplay:10.37,2013-01-18 09:20:00,
2013-01-18 04:25:00,36.0,25.0,30.00,WNW,292,5.8,5.8,64,0.00,CLR,CLR,0.00,WeatherDisplay:10.37,2013-01-18 09:25:00,
2013-01-18 04:30:00,36.0,24.6,30.00,WNW,292,9.2,9.2,63,0.00,CLR,CLR,0.00,WeatherDisplay:10.37,2013-01-18 09:30:00,
2013-01-18 04:35:00,36.1,24.4,30.01,North,0,3.6,3.6,62,0.00,CLR,CLR,0.00,WeatherDisplay:10.37,2013-01-18 09:35:00,
2013-01-18 04:40:00,36.1,24.4,30.01,SW,225,3.5,3.5,62,0.00,CLR,CLR,0.00,WeatherDisplay:10.37,2013-01-18 09:40:00,
2013-01-18 04:46:00,36.1,24.0,30.01,NW,315,5.8,5.8,61,0.00,CLR,CLR,0.00,WeatherDisplay:10.37,2013-01-18 09:46:00,
2013-01-18 04:51:00,36.1,23.6,30.02,South,180,6.5,6.5,60,0.00,CLR,CLR,0.00,WeatherDisplay:10.37,2013-01-18 09:51:00,
2013-01-18 04:56:00,36.1,23.2,30.02,SSW,202,5.8,5.8,59,0.00,CLR,CLR,0.00,WeatherDisplay:10.37,2013-01-18 09:56:00,
2013-01-18 05:01:00,36.1,22.8,30.02,SW,225,2.3,5.9,58,0.00,CLR,CLR,0.00,WeatherDisplay:10.37,2013-01-18 10:01:00,
2013-01-18 05:07:00,36.0,21.8,30.03,West,270,11.5,11.5,56,0.00,CLR,CLR,0.00,WeatherDisplay:10.37,2013-01-18 10:07:00,
2013-01-18 05:12:00,35.8,22.4,30.03,WNW,292,5.8,5.8,58,0.00,CLR,CLR,0.00,WeatherDisplay:10.37,2013-01-18 10:12:00,
2013-01-18 05:17:00,35.4,22.9,30.04,NNW,338,7.8,7.8,60,0.00,CLR,CLR,0.00,WeatherDisplay:10.37,2013-01-18 10:17:00,
2013-01-18 05:22:00,34.9,23.2,30.04,SSE,158,8.3,8.3,62,0.00,CLR,CLR,0.00,WeatherDisplay:10.37,2013-01-18 10:22:00,
2013-01-18 05:28:00,34.3,23.0,30.05,West,270,11.5,11.5,63,0.00,CLR,CLR,0.00,WeatherDisplay:10.37,2013-01-18 10:28:00,
2013-01-18 05:33:00,34.0,23.1,30.06,West,270,15.0,15.0,64,0.00,CLR,CLR,0.00,WeatherDisplay:10.37,2013-01-18 10:33:00,
2013-01-18 05:38:00,33.6,23.1,30.06,West,270,6.9,6.9,65,0.00,CLR,CLR,0.00,WeatherDisplay:10.37,2013-01-18 10:38:00,
2013-01-18 05:43:00,33.4,23.3,30.06,WSW,248,10.4,10.4,66,0.00,CLR,CLR,0.00,WeatherDisplay:10.37,2013-01-18 10:43:00,
2013-01-18 05:49:00,33.1,22.9,30.06,SSW,202,10.4,10.4,66,0.00,CLR,CLR,0.00,WeatherDisplay:10.37,2013-01-18 10:49:00,
2013-01-18 05:54:00,32.9,22.8,30.07,East,90,11.5,11.5,66,0.00,CLR,CLR,0.00,WeatherDisplay:10.37,2013-01-18 10:54:00,
2013-01-18 05:59:00,32.7,22.6,30.07,West,270,6.9,6.9,66,0.00,CLR,CLR,0.00,WeatherDisplay:10.37,2013-01-18 10:59:00,
2013-01-18 06:04:00,32.7,23.0,30.07,NW,315,9.2,9.2,67,0.00,CLR,CLR,0.00,WeatherDisplay:10.37,2013-01-18 11:04:00,
2013-01-18 06:09:00,32.5,22.8,30.08,WSW,248,9.2,9.2,67,0.00,CLR,CLR,0.00,WeatherDisplay:10.37,2013-01-18 11:09:00,
2013-01-18 06:15:00,32.5,22.8,30.08,West,270,8.1,8.1,67,0.00,CLR,CLR,0.00,WeatherDisplay:10.37,2013-01-18 11:15:00,
2013-01-18 06:20:00,32.4,22.3,30.09,SW,225,6.9,6.9,66,0.00,CLR,CLR,0.00,WeatherDisplay:10.37,2013-01-18 11:20:00,
2013-01-18 06:25:00,32.4,22.3,30.09,WSW,248,17.3,17.3,66,0.00,CLR,CLR,0.00,WeatherDisplay:10.37,2013-01-18 11:25:00,
2013-01-18 06:30:00,32.4,21.9,30.10,West,270,6.9,6.9,65,0.00,CLR,CLR,0.00,WeatherDisplay:10.37,2013-01-18 11:30:00,
2013-01-18 06:36:00,32.4,21.9,30.11,NW,315,4.7,4.7,65,0.00,CLR,CLR,0.00,WeatherDisplay:10.37,2013-01-18 11:36:00,
2013-01-18 06:41:00,32.2,22.4,30.11,NNW,338,9.2,9.2,67,0.00,CLR,CLR,0.00,WeatherDisplay:10.37,2013-01-18 11:41:00,
2013-01-18 06:46:00,31.6,22.6,30.12,West,270,9.2,9.2,69,0.00,CLR,CLR,0.00,WeatherDisplay:10.37,2013-01-18 11:46:00,
2013-01-18 06:51:00,31.3,22.6,30.12,WNW,292,8.1,8.1,70,0.00,CLR,CLR,0.00,WeatherDisplay:10.37,2013-01-18 11:51:00,
2013-01-18 06:56:00,30.9,22.6,30.12,WNW,292,6.9,6.9,71,0.00,CLR,CLR,0.00,WeatherDisplay:10.37,2013-01-18 11:56:00,
2013-01-18 07:02:00,30.7,22.8,30.13,West,270,3.5,3.5,72,0.00,CLR,CLR,0.00,WeatherDisplay:10.37,2013-01-18 12:02:00,
2013-01-18 07:07:00,30.4,22.4,30.13,SSW,202,8.1,8.1,72,0.00,CLR,CLR,0.00,WeatherDisplay:10.37,2013-01-18 12:07:00,
2013-01-18 07:12:00,30.4,22.8,30.14,SW,225,3.8,3.8,73,0.00,CLR,CLR,0.00,WeatherDisplay:10.37,2013-01-18 12:12:00,
2013-01-18 07:17:00,30.4,22.4,30.14,WNW,292,4.5,4.5,72,0.00,CLR,CLR,0.00,WeatherDisplay:10.37,2013-01-18 12:17:00,
2013-01-18 07:22:00,30.2,21.6,30.15,SW,225,5.8,5.8,70,0.00,CLR,CLR,0.00,WeatherDisplay:10.37,2013-01-18 12:22:00,
2013-01-18 07:27:00,30.4,20.7,30.15,SSE,158,6.9,6.9,67,0.00,CLR,CLR,0.00,WeatherDisplay:10.37,2013-01-18 12:27:00,
2013-01-18 07:33:00,30.7,20.7,30.16,NW,315,9.8,9.8,66,0.00,CLR,CLR,0.00,WeatherDisplay:10.37,2013-01-18 12:33:00,
2013-01-18 07:38:00,30.7,20.0,30.16,WNW,292,12.7,12.7,64,0.00,CLR,CLR,0.00,WeatherDisplay:10.37,2013-01-18 12:38:00,
2013-01-18 07:43:00,30.6,19.5,30.16,WSW,248,15.2,15.2,63,0.00,CLR,CLR,0.00,WeatherDisplay:10.37,2013-01-18 12:43:00,
2013-01-18 07:48:00,30.4,18.5,30.17,WSW,248,11.5,11.5,61,0.00,CLR,CLR,0.00,WeatherDisplay:10.37,2013-01-18 12:48:00,
2013-01-18 07:53:00,30.0,17.8,30.18,WNW,292,10.4,10.4,60,0.00,CLR,CLR,0.00,WeatherDisplay:10.37,2013-01-18 12:53:00,
2013-01-18 07:58:00,30.0,17.8,30.18,WNW,292,7.4,7.4,60,0.00,CLR,CLR,0.00,WeatherDisplay:10.37,2013-01-18 12:58:00,
2013-01-18 08:03:00,29.8,17.2,30.18,WSW,248,12.7,12.7,59,0.00,CLR,CLR,0.00,WeatherDisplay:10.37,2013-01-18 13:03:00,
2013-01-18 08:08:00,29.7,17.5,30.19,WNW,292,7.4,7.4,60,0.00,CLR,CLR,0.00,WeatherDisplay:10.37,2013-01-18 13:08:00,
2013-01-18 08:14:00,29.7,17.5,30.19,WNW,292,9.2,9.2,60,0.00,CLR,CLR,0.00,WeatherDisplay:10.37,2013-01-18 13:14:00,
2013-01-18 08:19:00,29.7,17.1,30.20,WNW,292,10.4,10.4,59,0.00,CLR,CLR,0.00,WeatherDisplay:10.37,2013-01-18 13:19:00,
2013-01-18 08:24:00,29.3,16.7,30.20,WNW,292,8.9,8.9,59,0.00,CLR,CLR,0.00,WeatherDisplay:10.37,2013-01-18 13:24:00,
2013-01-18 08:29:00,29.1,16.6,30.20,West,270,8.1,8.1,59,0.00,CLR,CLR,0.00,WeatherDisplay:10.37,2013-01-18 13:29:00,
2013-01-18 08:34:00,29.1,16.2,30.21,WSW,248,12.7,12.7,58,0.00,CLR,CLR,0.00,WeatherDisplay:10.37,2013-01-18 13:34:00,
2013-01-18 08:40:00,29.1,16.6,30.21,SW,225,8.1,8.1,59,0.00,CLR,CLR,0.00,WeatherDisplay:10.37,2013-01-18 13:40:00,
2013-01-18 08:45:00,29.7,16.7,30.22,SW,225,9.2,9.2,58,0.00,CLR,CLR,0.00,WeatherDisplay:10.37,2013-01-18 13:45:00,
2013-01-18 08:50:00,30.0,16.6,30.23,WSW,248,6.9,6.9,57,0.00,CLR,CLR,0.00,WeatherDisplay:10.37,2013-01-18 13:50:00,
2013-01-18 08:55:00,29.8,16.0,30.23,West,270,11.5,11.5,56,0.00,CLR,CLR,0.00,WeatherDisplay:10.37,2013-01-18 13:55:00,
2013-01-18 09:01:00,29.5,15.7,30.23,NW,315,5.1,5.1,56,0.00,CLR,CLR,0.00,WeatherDisplay:10.37,2013-01-18 14:01:00,
2013-01-18 09:06:00,29.7,15.9,30.24,NW,315,9.2,9.2,56,0.00,CLR,CLR,0.00,WeatherDisplay:10.37,2013-01-18 14:06:00,
2013-01-18 09:11:00,29.8,16.0,30.24,North,0,8.1,8.1,56,0.00,CLR,CLR,0.00,WeatherDisplay:10.37,2013-01-18 14:11:00,
2013-01-18 09:16:00,29.8,16.0,30.25,WSW,248,9.2,9.2,56,0.00,CLR,CLR,0.00,WeatherDisplay:10.37,2013-01-18 14:16:00,
2013-01-18 09:21:00,29.7,15.5,30.26,WNW,292,8.0,8.0,55,0.00,CLR,CLR,0.00,WeatherDisplay:10.37,2013-01-18 14:21:00,
2013-01-18 09:26:00,29.7,15.0,30.26,West,270,5.8,5.8,54,0.00,CLR,CLR,0.00,WeatherDisplay:10.37,2013-01-18 14:26:00,
2013-01-18 09:31:00,29.7,15.0,30.26,NW,315,10.4,10.4,54,0.00,CLR,CLR,0.00,WeatherDisplay:10.37,2013-01-18 14:31:00,
2013-01-18 09:37:00,29.5,14.4,30.27,SE,135,8.1,8.1,53,0.00,CLR,CLR,0.00,WeatherDisplay:10.37,2013-01-18 14:37:00,
2013-01-18 09:42:00,29.5,14.9,30.27,West,270,6.7,6.7,54,0.00,CLR,CLR,0.00,WeatherDisplay:10.37,2013-01-18 14:42:00,
2013-01-18 09:47:00,29.8,15.2,30.27,South,180,6.9,6.9,54,0.00,CLR,CLR,0.00,WeatherDisplay:10.37,2013-01-18 14:47:00,
2013-01-18 09:52:00,30.2,15.5,30.27,NW,315,8.1,8.1,54,0.00,CLR,CLR,0.00,WeatherDisplay:10.37,2013-01-18 14:52:00,
2013-01-18 09:57:00,30.2,15.1,30.28,WSW,248,8.1,8.1,53,0.00,CLR,CLR,0.00,WeatherDisplay:10.37,2013-01-18 14:57:00,
2013-01-18 10:03:00,30.0,14.9,30.28,NW,315,5.8,5.8,53,0.00,CLR,CLR,0.00,WeatherDisplay:10.37,2013-01-18 15:03:00,
2013-01-18 10:08:00,30.2,14.7,30.29,NW,315,8.1,8.1,52,0.00,CLR,CLR,0.00,WeatherDisplay:10.37,2013-01-18 15:08:00,
2013-01-18 10:13:00,30.2,14.7,30.29,WSW,248,8.0,8.0,52,0.00,CLR,CLR,0.00,WeatherDisplay:10.37,2013-01-18 15:13:00,
2013-01-18 10:18:00,30.6,15.4,30.29,West,270,4.6,4.6,53,0.00,CLR,CLR,0.00,WeatherDisplay:10.37,2013-01-18 15:18:00,
2013-01-18 10:23:00,30.6,14.6,30.29,West,270,8.9,8.9,51,0.00,CLR,CLR,0.00,WeatherDisplay:10.37,2013-01-18 15:23:00,
2013-01-18 10:28:00,30.0,14.5,30.29,WNW,292,5.6,5.6,52,0.00,CLR,CLR,0.00,WeatherDisplay:10.37,2013-01-18 15:28:00,
2013-01-18 10:34:00,30.4,14.8,30.29,WSW,248,3.5,3.5,52,0.00,CLR,CLR,0.00,WeatherDisplay:10.37,2013-01-18 15:34:00,
2013-01-18 10:39:00,30.7,15.6,30.29,WNW,292,5.8,5.8,53,0.00,CLR,CLR,0.00,WeatherDisplay:10.37,2013-01-18 15:39:00,
2013-01-18 10:44:00,31.1,15.9,30.29,SSW,202,11.5,11.5,53,0.00,CLR,CLR,0.00,WeatherDisplay:10.37,2013-01-18 15:44:00,
2013-01-18 10:49:00,31.6,16.0,30.29,NW,315,5.8,5.8,52,0.00,CLR,CLR,0.00,WeatherDisplay:10.37,2013-01-18 15:49:00,
2013-01-18 10:54:00,31.6,15.6,30.29,NW,315,4.9,4.9,51,0.00,CLR,CLR,0.00,WeatherDisplay:10.37,2013-01-18 15:54:00,
2013-01-18 10:59:00,31.3,15.2,30.29,WSW,248,9.2,9.2,51,0.00,CLR,CLR,0.00,WeatherDisplay:10.37,2013-01-18 15:59:00,
2013-01-18 11:05:00,31.1,15.1,30.29,WNW,292,7.4,7.4,51,0.00,CLR,CLR,0.00,WeatherDisplay:10.37,2013-01-18 16:05:00,
2013-01-18 11:10:00,30.9,14.9,30.29,West,270,8.1,8.1,51,0.00,CLR,CLR,0.00,WeatherDisplay:10.37,2013-01-18 16:10:00,
2013-01-18 11:15:00,30.9,14.9,30.29,SW,225,5.8,5.8,51,0.00,CLR,CLR,0.00,WeatherDisplay:10.37,2013-01-18 16:15:00,
2013-01-18 11:20:00,31.5,15.8,30.29,NNW,338,5.8,5.8,52,0.00,CLR,CLR,0.00,WeatherDisplay:10.37,2013-01-18 16:20:00,
2013-01-18 11:25:00,31.8,15.7,30.29,WSW,248,6.9,6.9,51,0.00,CLR,CLR,0.00,WeatherDisplay:10.37,2013-01-18 16:25:00,
2013-01-18 11:30:00,32.2,16.5,30.29,WSW,248,5.8,5.8,52,0.00,CLR,CLR,0.00,WeatherDisplay:10.37,2013-01-18 16:30:00,
2013-01-18 11:36:00,32.7,17.5,30.28,WNW,292,3.5,3.5,53,0.00,CLR,CLR,0.00,WeatherDisplay:10.37,2013-01-18 16:36:00,
2013-01-18 11:41:00,32.7,16.1,30.29,WNW,292,6.9,6.9,50,0.00,CLR,CLR,0.00,WeatherDisplay:10.37,2013-01-18 16:41:00,
2013-01-18 11:46:00,32.4,15.8,30.28,WNW,292,6.9,6.9,50,0.00,CLR,CLR,0.00,WeatherDisplay:10.37,2013-01-18 16:46:00,
2013-01-18 11:51:00,32.2,16.1,30.28,SSW,202,8.1,8.1,51,0.00,CLR,CLR,0.00,WeatherDisplay:10.37,2013-01-18 16:51:00,
2013-01-18 11:56:00,32.4,16.2,30.28,WNW,292,3.5,3.5,51,0.00,CLR,CLR,0.00,WeatherDisplay:10.37,2013-01-18 16:56:00,
2013-01-18 12:01:00,32.5,15.9,30.27,WSW,248,5.8,5.8,50,0.00,CLR,CLR,0.00,WeatherDisplay:10.37,2013-01-18 17:01:00,
2013-01-18 12:06:00,32.5,16.4,30.27,WNW,292,6.9,6.9,51,0.00,CLR,CLR,0.00,WeatherDisplay:10.37,2013-01-18 17:06:00,
2013-01-18 12:12:00,32.5,16.4,30.27,South,180,1.1,1.1,51,0.00,CLR,CLR,0.00,WeatherDisplay:10.37,2013-01-18 17:12:00,
2013-01-18 12:17:00,32.5,15.5,30.26,West,270,4.6,0.0,49,0.00,CLR,CLR,0.00,WeatherDisplay:10.37,2013-01-18 17:17:00,
2013-01-18 12:22:00,32.4,15.3,30.26,West,270,4.9,4.9,49,0.00,CLR,CLR,0.00,WeatherDisplay:10.37,2013-01-18 17:22:00,
2013-01-18 12:27:00,32.4,16.2,30.26,WNW,292,5.8,5.8,51,0.00,CLR,CLR,0.00,WeatherDisplay:10.37,2013-01-18 17:27:00,
2013-01-18 12:32:00,32.7,16.1,30.26,SW,225,4.0,4.0,50,0.00,CLR,CLR,0.00,WeatherDisplay:10.37,2013-01-18 17:32:00,
2013-01-18 12:37:00,33.3,16.6,30.25,West,270,2.3,2.3,50,0.00,CLR,CLR,0.00,WeatherDisplay:10.37,2013-01-18 17:37:00,
2013-01-18 12:43:00,33.4,16.8,30.25,SSW,202,4.6,4.6,50,0.00,CLR,CLR,0.00,WeatherDisplay:10.37,2013-01-18 17:43:00,
2013-01-18 12:48:00,33.6,16.5,30.25,West,270,8.1,8.1,49,0.00,CLR,CLR,0.00,WeatherDisplay:10.37,2013-01-18 17:48:00,
2013-01-18 12:53:00,33.6,16.5,30.25,NW,315,6.9,6.9,49,0.00,CLR,CLR,0.00,WeatherDisplay:10.37,2013-01-18 17:53:00,
2013-01-18 12:59:00,33.6,16.0,30.24,West,270,6.9,6.9,48,0.00,CLR,CLR,0.00,WeatherDisplay:10.37,2013-01-18 17:59:00,
2013-01-18 13:04:00,33.4,15.8,30.25,NW,315,5.8,5.8,48,0.00,CLR,CLR,0.00,WeatherDisplay:10.37,2013-01-18 18:04:00,
2013-01-18 13:09:00,33.6,16.9,30.25,SW,225,0.0,0.0,50,0.00,CLR,CLR,0.00,WeatherDisplay:10.37,2013-01-18 18:09:00,
2013-01-18 13:14:00,34.2,17.0,30.25,NNW,338,4.6,4.6,49,0.00,CLR,CLR,0.00,WeatherDisplay:10.37,2013-01-18 18:14:00,
2013-01-18 13:20:00,34.3,17.1,30.25,WSW,248,5.8,5.8,49,0.00,CLR,CLR,0.00,WeatherDisplay:10.37,2013-01-18 18:20:00,
2013-01-18 13:25:00,34.3,17.1,30.26,WSW,248,3.5,3.5,49,0.00,CLR,CLR,0.00,WeatherDisplay:10.37,2013-01-18 18:25:00,
2013-01-18 13:30:00,34.5,17.3,30.25,SSW,202,0.0,0.0,49,0.00,CLR,CLR,0.00,WeatherDisplay:10.37,2013-01-18 18:30:00,
2013-01-18 13:35:00,35.1,18.3,30.25,South,180,5.8,5.8,50,0.00,CLR,CLR,0.00,WeatherDisplay:10.37,2013-01-18 18:35:00,
2013-01-18 13:40:00,35.8,18.5,30.26,SSE,158,8.1,8.1,49,0.00,CLR,CLR,0.00,WeatherDisplay:10.37,2013-01-18 18:40:00,
2013-01-18 13:45:00,36.0,17.2,30.25,West,270,3.5,3.5,46,0.00,CLR,CLR,0.00,WeatherDisplay:10.37,2013-01-18 18:45:00,
2013-01-18 13:51:00,35.4,16.7,30.25,WNW,292,5.1,5.1,46,0.00,CLR,CLR,0.00,WeatherDisplay:10.37,2013-01-18 18:51:00,
2013-01-18 13:56:00,35.1,15.8,30.25,WNW,292,6.9,6.9,45,0.00,CLR,CLR,0.00,WeatherDisplay:10.37,2013-01-18 18:56:00,
2013-01-18 14:01:00,34.9,16.2,30.25,SSW,202,8.1,8.1,46,0.00,CLR,CLR,0.00,WeatherDisplay:10.37,2013-01-18 19:01:00,
2013-01-18 14:06:00,35.1,16.3,30.25,WNW,292,4.2,4.2,46,0.00,CLR,CLR,0.00,WeatherDisplay:10.37,2013-01-18 19:06:00,
2013-01-18 14:11:00,34.9,15.7,30.26,WNW,292,4.7,4.7,45,0.00,CLR,CLR,0.00,WeatherDisplay:10.37,2013-01-18 19:11:00,
2013-01-18 14:16:00,34.9,15.7,30.25,SW,225,2.5,2.5,45,0.00,CLR,CLR,0.00,WeatherDisplay:10.37,2013-01-18 19:16:00,
2013-01-18 14:21:00,35.2,16.0,30.25,East,90,0.0,0.0,45,0.00,CLR,CLR,0.00,WeatherDisplay:10.37,2013-01-18 19:21:00,
2013-01-18 14:27:00,35.2,16.5,30.25,SE,135,0.0,0.0,46,0.00,CLR,CLR,0.00,WeatherDisplay:10.37,2013-01-18 19:27:00,
2013-01-18 14:32:00,35.4,16.7,30.25,West,270,3.5,0.0,46,0.00,CLR,CLR,0.00,WeatherDisplay:10.37,2013-01-18 19:32:00,
2013-01-18 14:37:00,35.6,16.3,30.25,SSW,202,2.3,2.3,45,0.00,CLR,CLR,0.00,WeatherDisplay:10.37,2013-01-18 19:37:00,
2013-01-18 14:42:00,35.4,15.6,30.25,NW,315,1.2,1.2,44,0.00,CLR,CLR,0.00,WeatherDisplay:10.37,2013-01-18 19:42:00,
2013-01-18 14:47:00,35.4,15.6,30.25,WNW,292,3.5,3.5,44,0.00,CLR,CLR,0.00,WeatherDisplay:10.37,2013-01-18 19:47:00,
2013-01-18 14:53:00,35.2,16.0,30.25,WSW,248,4.6,0.0,45,0.00,CLR,CLR,0.00,WeatherDisplay:10.37,2013-01-18 19:53:00,
2013-01-18 14:58:00,35.2,16.5,30.25,South,180,2.3,0.0,46,0.00,CLR,CLR,0.00,WeatherDisplay:10.37,2013-01-18 19:58:00,
2013-01-18 15:03:00,35.4,16.2,30.24,SSW,202,0.0,0.0,45,0.00,CLR,CLR,0.00,WeatherDisplay:10.37,2013-01-18 20:03:00,
2013-01-18 15:08:00,35.4,16.7,30.24,South,180,2.3,2.3,46,0.00,CLR,CLR,0.00,WeatherDisplay:10.37,2013-01-18 20:08:00,
2013-01-18 15:13:00,35.8,17.0,30.24,SSW,202,0.0,0.0,46,0.00,CLR,CLR,0.00,WeatherDisplay:10.37,2013-01-18 20:13:00,
2013-01-18 15:18:00,35.8,16.5,30.25,WSW,248,2.3,2.3,45,0.00,CLR,CLR,0.00,WeatherDisplay:10.37,2013-01-18 20:18:00,
2013-01-18 15:24:00,35.8,16.5,30.25,SSW,202,1.2,0.0,45,0.00,CLR,CLR,0.00,WeatherDisplay:10.37,2013-01-18 20:24:00,
2013-01-18 15:29:00,36.0,16.7,30.25,SW,225,0.0,0.0,45,0.00,CLR,CLR,0.00,WeatherDisplay:10.37,2013-01-18 20:29:00,
2013-01-18 15:34:00,35.8,16.0,30.25,SSW,202,4.7,4.7,44,0.00,CLR,CLR,0.00,WeatherDisplay:10.37,2013-01-18 20:34:00,
2013-01-18 15:39:00,35.8,16.0,30.25,WSW,248,3.6,3.6,44,0.00,CLR,CLR,0.00,WeatherDisplay:10.37,2013-01-18 20:39:00,
2013-01-18 15:44:00,35.8,16.0,30.26,SW,225,1.2,1.2,44,0.00,CLR,CLR,0.00,WeatherDisplay:10.37,2013-01-18 20:44:00,
2013-01-18 15:50:00,35.8,16.0,30.25,SE,135,3.5,3.5,44,0.00,CLR,CLR,0.00,WeatherDisplay:10.37,2013-01-18 20:50:00,
2013-01-18 15:55:00,35.8,16.5,30.25,SSE,158,5.8,5.8,45,0.00,CLR,CLR,0.00,WeatherDisplay:10.37,2013-01-18 20:55:00,
2013-01-18 16:00:00,35.8,16.5,30.25,SW,225,0.0,0.0,45,0.00,CLR,CLR,0.00,WeatherDisplay:10.37,2013-01-18 21:00:00,
2013-01-18 16:05:00,36.0,16.7,30.25,SSE,158,1.2,0.0,45,0.00,CLR,CLR,0.00,WeatherDisplay:10.37,2013-01-18 21:05:00,
2013-01-18 16:10:00,36.0,16.7,30.25,SSW,202,0.0,0.0,45,0.00,CLR,CLR,0.00,WeatherDisplay:10.37,2013-01-18 21:10:00,
2013-01-18 16:15:00,35.8,16.5,30.25,ESE,112,5.8,5.8,45,0.00,CLR,CLR,0.00,WeatherDisplay:10.37,2013-01-18 21:15:00,
2013-01-18 16:20:00,35.8,16.5,30.24,ESE,112,3.5,3.5,45,0.00,CLR,CLR,0.00,WeatherDisplay:10.37,2013-01-18 21:20:00,
2013-01-18 16:25:00,35.6,16.8,30.25,SSW,202,0.0,0.0,46,0.00,CLR,CLR,0.00,WeatherDisplay:10.37,2013-01-18 21:25:00,
2013-01-18 16:30:00,35.4,16.2,30.24,SSW,202,0.7,0.7,45,0.00,CLR,CLR,0.00,WeatherDisplay:10.37,2013-01-18 21:30:00,
2013-01-18 16:36:00,35.4,16.2,30.24,SW,225,0.0,0.0,45,0.00,CLR,CLR,0.00,WeatherDisplay:10.37,2013-01-18 21:36:00,
2013-01-18 16:41:00,35.4,16.2,30.25,SE,135,0.0,0.0,45,0.00,CLR,CLR,0.00,WeatherDisplay:10.37,2013-01-18 21:41:00,
2013-01-18 16:46:00,35.2,16.0,30.25,South,180,0.0,0.0,45,0.00,CLR,CLR,0.00,WeatherDisplay:10.37,2013-01-18 21:46:00,
2013-01-18 16:51:00,35.2,16.5,30.24,ENE,68,1.6,1.6,46,0.00,CLR,CLR,0.00,WeatherDisplay:10.37,2013-01-18 21:51:00,
2013-01-18 16:57:00,34.9,16.2,30.24,ESE,112,2.3,2.3,46,0.00,CLR,CLR,0.00,WeatherDisplay:10.37,2013-01-18 21:57:00,
2013-01-18 17:02:00,34.7,15.5,30.24,SE,135,0.0,0.0,45,0.00,CLR,CLR,0.00,WeatherDisplay:10.37,2013-01-18 22:02:00,
2013-01-18 17:07:00,34.5,15.8,30.25,SE,135,0.0,0.0,46,0.00,CLR,CLR,0.00,WeatherDisplay:10.37,2013-01-18 22:07:00,
2013-01-18 17:12:00,34.3,16.2,30.24,SE,135,0.0,0.0,47,0.00,CLR,CLR,0.00,WeatherDisplay:10.37,2013-01-18 22:12:00,
2013-01-18 17:17:00,34.3,16.7,30.24,SE,135,0.0,0.0,48,0.00,CLR,CLR,0.00,WeatherDisplay:10.37,2013-01-18 22:17:00,
2013-01-18 17:22:00,33.8,16.2,30.24,SE,135,0.0,0.0,48,0.00,CLR,CLR,0.00,WeatherDisplay:10.37,2013-01-18 22:22:00,
2013-01-18 17:28:00,33.4,16.3,30.24,SE,135,0.0,0.0,49,0.00,CLR,CLR,0.00,WeatherDisplay:10.37,2013-01-18 22:28:00,
2013-01-18 17:33:00,33.1,16.0,30.24,SE,135,0.0,0.0,49,0.00,CLR,CLR,0.00,WeatherDisplay:10.37,2013-01-18 22:33:00,
2013-01-18 17:38:00,32.7,15.2,30.24,SE,135,0.0,0.0,48,0.00,CLR,CLR,0.00,WeatherDisplay:10.37,2013-01-18 22:38:00,
2013-01-18 17:44:00,32.5,15.0,30.23,ESE,112,0.0,0.0,48,0.00,CLR,CLR,0.00,WeatherDisplay:10.37,2013-01-18 22:44:00,
2013-01-18 17:49:00,32.4,15.3,30.23,ESE,112,0.0,0.0,49,0.00,CLR,CLR,0.00,WeatherDisplay:10.37,2013-01-18 22:49:00,
2013-01-18 17:54:00,32.2,15.1,30.22,ESE,112,0.0,0.0,49,0.00,CLR,CLR,0.00,WeatherDisplay:10.37,2013-01-18 22:54:00,
2013-01-18 17:59:00,31.8,15.3,30.22,ESE,112,0.0,0.0,50,0.00,CLR,CLR,0.00,WeatherDisplay:10.37,2013-01-18 22:59:00,
2013-01-18 18:04:00,31.8,15.3,30.22,ESE,112,0.0,0.0,50,0.00,CLR,CLR,0.00,WeatherDisplay:10.37,2013-01-18 23:04:00,
2013-01-18 18:10:00,31.6,15.1,30.22,ESE,112,0.0,0.0,50,0.00,CLR,CLR,0.00,WeatherDisplay:10.37,2013-01-18 23:10:00,
2013-01-18 18:15:00,31.3,15.7,30.23,ESE,112,0.0,0.0,52,0.00,CLR,CLR,0.00,WeatherDisplay:10.37,2013-01-18 23:15:00,
2013-01-18 18:20:00,31.3,16.1,30.23,SE,135,0.0,0.0,53,0.00,CLR,CLR,0.00,WeatherDisplay:10.37,2013-01-18 23:20:00,
2013-01-18 18:25:00,30.9,16.2,30.23,SSE,158,0.0,0.0,54,0.00,CLR,CLR,0.00,WeatherDisplay:10.37,2013-01-18 23:25:00,
2013-01-18 18:30:00,30.7,16.0,30.23,SE,135,0.0,0.0,54,0.00,CLR,CLR,0.00,WeatherDisplay:10.37,2013-01-18 23:30:00,
2013-01-18 18:36:00,30.4,16.1,30.23,SE,135,0.0,0.0,55,0.00,CLR,CLR,0.00,WeatherDisplay:10.37,2013-01-18 23:36:00,
2013-01-18 18:41:00,30.0,15.8,30.23,SE,135,0.0,0.0,55,0.00,CLR,CLR,0.00,WeatherDisplay:10.37,2013-01-18 23:41:00,
2013-01-18 18:46:00,30.0,16.2,30.23,SE,135,0.0,0.0,56,0.00,CLR,CLR,0.00,WeatherDisplay:10.37,2013-01-18 23:46:00,
2013-01-18 18:51:00,29.8,16.0,30.24,SSE,158,0.0,0.0,56,0.00,CLR,CLR,0.00,WeatherDisplay:10.37,2013-01-18 23:51:00,
2013-01-18 18:56:00,29.7,16.3,30.24,SSE,158,0.0,0.0,57,0.00,CLR,CLR,0.00,WeatherDisplay:10.37,2013-01-18 23:56:00,
2013-01-18 19:01:00,29.5,16.1,30.24,ESE,112,0.0,0.0,57,0.00,CLR,CLR,0.00,WeatherDisplay:10.37,2013-01-19 00:01:00,
2013-01-18 19:07:00,29.1,15.4,30.24,ESE,112,0.0,0.0,56,0.00,CLR,CLR,0.00,WeatherDisplay:10.37,2013-01-19 00:07:00,
2013-01-18 19:12:00,29.1,16.6,30.24,ESE,112,0.0,0.0,59,0.00,CLR,CLR,0.00,WeatherDisplay:10.37,2013-01-19 00:12:00,
2013-01-18 19:17:00,28.9,16.4,30.24,ESE,112,0.0,0.0,59,0.00,CLR,CLR,0.00,WeatherDisplay:10.37,2013-01-19 00:17:00,
2013-01-18 19:22:00,28.8,16.6,30.24,ESE,112,0.0,0.0,60,0.00,CLR,CLR,0.00,WeatherDisplay:10.37,2013-01-19 00:22:00,
2013-01-18 19:27:00,28.6,16.4,30.24,ESE,112,0.0,0.0,60,0.00,CLR,CLR,0.00,WeatherDisplay:10.37,2013-01-19 00:27:00,
2013-01-18 19:32:00,28.6,16.8,30.24,ESE,112,0.0,0.0,61,0.00,CLR,CLR,0.00,WeatherDisplay:10.37,2013-01-19 00:32:00,
2013-01-18 19:37:00,28.2,16.9,30.24,ESE,112,0.0,0.0,62,0.00,CLR,CLR,0.00,WeatherDisplay:10.37,2013-01-19 00:37:00,
2013-01-18 19:43:00,28.2,16.9,30.24,SE,135,0.0,0.0,62,0.00,CLR,CLR,0.00,WeatherDisplay:10.37,2013-01-19 00:43:00,
2013-01-18 19:48:00,28.0,16.7,30.24,SE,135,0.0,0.0,62,0.00,CLR,CLR,0.00,WeatherDisplay:10.37,2013-01-19 00:48:00,
2013-01-18 19:53:00,27.9,16.9,30.24,SE,135,0.0,0.0,63,0.00,CLR,CLR,0.00,WeatherDisplay:10.37,2013-01-19 00:53:00,
2013-01-18 19:58:00,27.7,17.1,30.24,SE,135,0.0,0.0,64,0.00,CLR,CLR,0.00,WeatherDisplay:10.37,2013-01-19 00:58:00,
2013-01-18 20:03:00,27.5,16.9,30.23,SE,135,0.0,0.0,64,0.00,CLR,CLR,0.00,WeatherDisplay:10.37,2013-01-19 01:03:00,
2013-01-18 20:08:00,27.3,16.7,30.23,SE,135,0.0,0.0,64,0.00,CLR,CLR,0.00,WeatherDisplay:10.37,2013-01-19 01:08:00,
2013-01-18 20:13:00,27.3,17.1,30.23,SE,135,0.0,0.0,65,0.00,CLR,CLR,0.00,WeatherDisplay:10.37,2013-01-19 01:13:00,
2013-01-18 20:19:00,27.1,16.6,30.23,SE,135,0.0,0.0,64,0.00,CLR,CLR,0.00,WeatherDisplay:10.37,2013-01-19 01:19:00,
2013-01-18 20:24:00,27.1,16.6,30.23,SE,135,0.0,0.0,64,0.00,CLR,CLR,0.00,WeatherDisplay:10.37,2013-01-19 01:24:00,
2013-01-18 20:29:00,27.1,16.6,30.23,SE,135,0.0,0.0,64,0.00,CLR,CLR,0.00,WeatherDisplay:10.37,2013-01-19 01:29:00,
2013-01-18 20:35:00,27.0,16.4,30.23,SE,135,0.0,0.0,64,0.00,CLR,CLR,0.00,WeatherDisplay:10.37,2013-01-19 01:35:00,
2013-01-18 20:40:00,27.1,17.6,30.23,SE,135,0.0,0.0,67,0.00,CLR,CLR,0.00,WeatherDisplay:10.37,2013-01-19 01:40:00,
2013-01-18 20:45:00,27.1,17.6,30.23,SE,135,0.0,0.0,67,0.00,CLR,CLR,0.00,WeatherDisplay:10.37,2013-01-19 01:45:00,
2013-01-18 20:50:00,27.1,18.3,30.22,SE,135,0.0,0.0,69,0.00,CLR,CLR,0.00,WeatherDisplay:10.37,2013-01-19 01:50:00,
2013-01-18 20:55:00,27.0,17.8,30.22,SE,135,0.0,0.0,68,0.00,CLR,CLR,0.00,WeatherDisplay:10.37,2013-01-19 01:55:00,
2013-01-18 21:00:00,27.0,18.1,30.22,SE,135,0.0,0.0,69,0.00,CLR,CLR,0.00,WeatherDisplay:10.37,2013-01-19 02:00:00,
2013-01-18 21:05:00,26.8,18.0,30.22,SE,135,0.0,0.0,69,0.00,CLR,CLR,0.00,WeatherDisplay:10.37,2013-01-19 02:05:00,
2013-01-18 21:10:00,26.4,17.6,30.22,SE,135,0.0,0.0,69,0.00,CLR,CLR,0.00,WeatherDisplay:10.37,2013-01-19 02:10:00,
2013-01-18 21:15:00,26.4,17.6,30.22,SE,135,0.0,0.0,69,0.00,CLR,CLR,0.00,WeatherDisplay:10.37,2013-01-19 02:15:00,
2013-01-18 21:21:00,26.2,17.8,30.22,SE,135,0.0,0.0,70,0.00,CLR,CLR,0.00,WeatherDisplay:10.37,2013-01-19 02:21:00,
2013-01-18 21:26:00,26.1,17.6,30.21,SE,135,0.0,0.0,70,0.00,CLR,CLR,0.00,WeatherDisplay:10.37,2013-01-19 02:26:00,
2013-01-18 21:31:00,25.9,17.4,30.21,SE,135,0.0,0.0,70,0.00,CLR,CLR,0.00,WeatherDisplay:10.37,2013-01-19 02:31:00,
2013-01-18 21:36:00,25.9,17.4,30.21,SE,135,0.0,0.0,70,0.00,CLR,CLR,0.00,WeatherDisplay:10.37,2013-01-19 02:36:00,
2013-01-18 21:41:00,25.7,17.3,30.21,SE,135,0.0,0.0,70,0.00,CLR,CLR,0.00,WeatherDisplay:10.37,2013-01-19 02:41:00,
2013-01-18 21:47:00,25.7,17.3,30.21,SE,135,0.0,0.0,70,0.00,CLR,CLR,0.00,WeatherDisplay:10.37,2013-01-19 02:47:00,
2013-01-18 21:52:00,25.5,17.1,30.21,SE,135,0.0,0.0,70,0.00,CLR,CLR,0.00,WeatherDisplay:10.37,2013-01-19 02:52:00,
2013-01-18 21:57:00,25.3,16.9,30.20,SE,135,0.0,0.0,70,0.00,CLR,CLR,0.00,WeatherDisplay:10.37,2013-01-19 02:57:00,
2013-01-18 22:02:00,25.2,17.1,30.20,SE,135,0.0,0.0,71,0.00,CLR,CLR,0.00,WeatherDisplay:10.37,2013-01-19 03:02:00,
2013-01-18 22:07:00,25.2,17.1,30.19,SE,135,0.0,0.0,71,0.00,CLR,CLR,0.00,WeatherDisplay:10.37,2013-01-19 03:07:00,
2013-01-18 22:12:00,25.0,16.9,30.19,SE,135,0.0,0.0,71,0.00,CLR,CLR,0.00,WeatherDisplay:10.37,2013-01-19 03:12:00,
2013-01-18 22:17:00,24.6,16.6,30.19,SE,135,0.0,0.0,71,0.00,CLR,CLR,0.00,WeatherDisplay:10.37,2013-01-19 03:17:00,
2013-01-18 22:22:00,24.6,16.6,30.19,SE,135,0.0,0.0,71,0.00,CLR,CLR,0.00,WeatherDisplay:10.37,2013-01-19 03:22:00,
2013-01-18 22:28:00,24.4,16.4,30.19,SE,135,0.0,0.0,71,0.00,CLR,CLR,0.00,WeatherDisplay:10.37,2013-01-19 03:28:00,
2013-01-18 22:33:00,24.4,16.4,30.18,SE,135,0.0,0.0,71,0.00,CLR,CLR,0.00,WeatherDisplay:10.37,2013-01-19 03:33:00,
2013-01-18 22:38:00,24.1,16.0,30.18,SE,135,0.0,0.0,71,0.00,CLR,CLR,0.00,WeatherDisplay:10.37,2013-01-19 03:38:00,
2013-01-18 22:43:00,24.1,16.0,30.18,SE,135,0.0,0.0,71,0.00,CLR,CLR,0.00,WeatherDisplay:10.37,2013-01-19 03:43:00,
2013-01-18 22:48:00,23.9,16.2,30.18,SE,135,0.0,0.0,72,0.00,CLR,CLR,0.00,WeatherDisplay:10.37,2013-01-19 03:48:00,
2013-01-18 22:53:00,23.7,16.0,30.18,SE,135,0.0,0.0,72,0.00,CLR,CLR,0.00,WeatherDisplay:10.37,2013-01-19 03:53:00,
2013-01-18 22:59:00,23.9,16.5,30.17,SE,135,0.0,0.0,73,0.00,CLR,CLR,0.00,WeatherDisplay:10.37,2013-01-19 03:59:00,
2013-01-18 23:04:00,23.7,16.3,30.17,SE,135,0.0,0.0,73,0.00,CLR,CLR,0.00,WeatherDisplay:10.37,2013-01-19 04:04:00,
2013-01-18 23:09:00,23.7,16.3,30.17,SE,135,0.0,0.0,73,0.00,CLR,CLR,0.00,WeatherDisplay:10.37,2013-01-19 04:09:00,
2013-01-18 23:14:00,23.5,15.8,30.17,SE,135,0.0,0.0,72,0.00,CLR,CLR,0.00,WeatherDisplay:10.37,2013-01-19 04:14:00,
2013-01-18 23:19:00,23.5,16.2,30.16,SE,135,0.0,0.0,73,0.00,CLR,CLR,0.00,WeatherDisplay:10.37,2013-01-19 04:19:00,
2013-01-18 23:24:00,23.5,16.2,30.16,East,90,0.0,0.0,73,0.00,CLR,CLR,0.00,WeatherDisplay:10.37,2013-01-19 04:24:00,
2013-01-18 23:29:00,23.5,16.2,30.16,East,90,0.0,0.0,73,0.00,CLR,CLR,0.00,WeatherDisplay:10.37,2013-01-19 04:29:00,
2013-01-18 23:35:00,23.5,16.2,30.16,East,90,0.0,0.0,73,0.00,CLR,CLR,0.00,WeatherDisplay:10.37,2013-01-19 04:35:00,
2013-01-18 23:40:00,23.5,16.5,30.16,East,90,0.0,0.0,74,0.00,CLR,CLR,0.00,WeatherDisplay:10.37,2013-01-19 04:40:00,
2013-01-18 23:45:00,23.5,16.5,30.16,East,90,0.0,0.0,74,0.00,CLR,CLR,0.00,WeatherDisplay:10.37,2013-01-19 04:45:00,
2013-01-18 23:50:00,23.5,16.5,30.15,SE,135,0.0,0.0,74,0.00,CLR,CLR,0.00,WeatherDisplay:10.37,2013-01-19 04:50:00,
2013-01-18 23:55:00,23.5,16.8,30.16,SE,135,0.0,0.0,75,0.00,CLR,CLR,0.00,WeatherDisplay:10.37,2013-01-19 04:55:00,